sensor_id;sensor_type;location;lat;lon;timestamp;temperature;humidity
30234;DHT22;17046;52.074;4.748;2023-02-28T00:01:05;2.60;99.90
30234;DHT22;17046;52.074;4.748;2023-02-28T00:03:31;2.70;99.90
30234;DHT22;17046;52.074;4.748;2023-02-28T00:06:04;2.70;99.90
30234;DHT22;17046;52.074;4.748;2023-02-28T00:08:30;2.70;99.90
30234;DHT22;17046;52.074;4.748;2023-02-28T00:10:55;2.70;99.90
30234;DHT22;17046;52.074;4.748;2023-02-28T00:13:21;2.80;99.90
30234;DHT22;17046;52.074;4.748;2023-02-28T00:15:47;2.80;99.90
30234;DHT22;17046;52.074;4.748;2023-02-28T00:18:12;2.90;99.90
30234;DHT22;17046;52.074;4.748;2023-02-28T00:20:38;2.90;99.90
30234;DHT22;17046;52.074;4.748;2023-02-28T00:23:04;3.00;99.90
30234;DHT22;17046;52.074;4.748;2023-02-28T00:25:30;3.00;99.90
30234;DHT22;17046;52.074;4.748;2023-02-28T00:27:55;3.00;99.90
30234;DHT22;17046;52.074;4.748;2023-02-28T00:30:23;3.10;99.90
30234;DHT22;17046;52.074;4.748;2023-02-28T00:32:50;3.10;99.90
30234;DHT22;17046;52.074;4.748;2023-02-28T00:35:15;3.20;99.90
30234;DHT22;17046;52.074;4.748;2023-02-28T00:37:41;3.20;99.90
30234;DHT22;17046;52.074;4.748;2023-02-28T00:40:08;3.20;99.90
30234;DHT22;17046;52.074;4.748;2023-02-28T00:42:35;3.20;99.90
30234;DHT22;17046;52.074;4.748;2023-02-28T00:45:01;3.20;99.90
30234;DHT22;17046;52.074;4.748;2023-02-28T00:47:27;3.20;99.90
30234;DHT22;17046;52.074;4.748;2023-02-28T00:49:53;3.20;99.90
30234;DHT22;17046;52.074;4.748;2023-02-28T00:52:18;3.20;99.90
30234;DHT22;17046;52.074;4.748;2023-02-28T00:54:44;3.20;99.90
30234;DHT22;17046;52.074;4.748;2023-02-28T00:57:09;3.20;99.90
30234;DHT22;17046;52.074;4.748;2023-02-28T00:59:35;3.20;99.90
30234;DHT22;17046;52.074;4.748;2023-02-28T01:02:01;3.30;99.90
30234;DHT22;17046;52.074;4.748;2023-02-28T01:04:26;3.30;99.90
30234;DHT22;17046;52.074;4.748;2023-02-28T01:06:52;3.30;99.90
30234;DHT22;17046;52.074;4.748;2023-02-28T01:09:18;3.30;99.90
30234;DHT22;17046;52.074;4.748;2023-02-28T01:11:43;3.30;99.90
30234;DHT22;17046;52.074;4.748;2023-02-28T01:14:12;3.30;99.90
30234;DHT22;17046;52.074;4.748;2023-02-28T01:16:38;3.30;99.90
30234;DHT22;17046;52.074;4.748;2023-02-28T01:19:04;3.30;99.90
30234;DHT22;17046;52.074;4.748;2023-02-28T01:21:29;3.30;99.90
30234;DHT22;17046;52.074;4.748;2023-02-28T01:23:57;3.30;99.90
30234;DHT22;17046;52.074;4.748;2023-02-28T01:26:23;3.40;99.90
30234;DHT22;17046;52.074;4.748;2023-02-28T01:28:50;3.40;99.90
30234;DHT22;17046;52.074;4.748;2023-02-28T01:31:17;3.40;99.90
30234;DHT22;17046;52.074;4.748;2023-02-28T01:33:43;3.40;99.90
30234;DHT22;17046;52.074;4.748;2023-02-28T01:36:15;3.50;99.90
30234;DHT22;17046;52.074;4.748;2023-02-28T01:38:42;3.50;99.90
30234;DHT22;17046;52.074;4.748;2023-02-28T01:41:08;3.40;99.90
30234;DHT22;17046;52.074;4.748;2023-02-28T01:46:08;3.50;99.90
30234;DHT22;17046;52.074;4.748;2023-02-28T01:48:38;3.50;99.90
30234;DHT22;17046;52.074;4.748;2023-02-28T01:51:12;3.50;99.90
30234;DHT22;17046;52.074;4.748;2023-02-28T01:53:51;3.50;99.90
30234;DHT22;17046;52.074;4.748;2023-02-28T01:56:20;3.50;99.90
30234;DHT22;17046;52.074;4.748;2023-02-28T01:58:52;3.50;99.90
30234;DHT22;17046;52.074;4.748;2023-02-28T02:01:20;3.50;99.90
30234;DHT22;17046;52.074;4.748;2023-02-28T02:03:52;3.50;99.90
30234;DHT22;17046;52.074;4.748;2023-02-28T02:06:27;3.50;99.90
30234;DHT22;17046;52.074;4.748;2023-02-28T02:08:54;3.60;99.90
30234;DHT22;17046;52.074;4.748;2023-02-28T02:11:21;3.60;99.90
30234;DHT22;17046;52.074;4.748;2023-02-28T02:16:45;3.50;99.90
30234;DHT22;17046;52.074;4.748;2023-02-28T02:28:04;3.50;99.90
30234;DHT22;17046;52.074;4.748;2023-02-28T02:30:54;3.50;99.90
30234;DHT22;17046;52.074;4.748;2023-02-28T02:39:15;3.40;99.90
30234;DHT22;17046;52.074;4.748;2023-02-28T02:41:50;3.40;99.90
30234;DHT22;17046;52.074;4.748;2023-02-28T02:46:55;3.40;99.90
30234;DHT22;17046;52.074;4.748;2023-02-28T02:49:31;3.40;99.90
30234;DHT22;17046;52.074;4.748;2023-02-28T02:52:01;3.40;99.90
30234;DHT22;17046;52.074;4.748;2023-02-28T02:54:31;3.50;99.90
30234;DHT22;17046;52.074;4.748;2023-02-28T02:57:03;3.50;99.90
30234;DHT22;17046;52.074;4.748;2023-02-28T02:59:30;3.50;99.90
30234;DHT22;17046;52.074;4.748;2023-02-28T03:02:01;3.50;99.90
30234;DHT22;17046;52.074;4.748;2023-02-28T03:04:32;3.50;99.90
30234;DHT22;17046;52.074;4.748;2023-02-28T03:06:58;3.60;99.90
30234;DHT22;17046;52.074;4.748;2023-02-28T03:09:25;3.70;99.90
30234;DHT22;17046;52.074;4.748;2023-02-28T03:11:52;3.70;99.90
30234;DHT22;17046;52.074;4.748;2023-02-28T03:20:04;3.70;99.90
30234;DHT22;17046;52.074;4.748;2023-02-28T03:25:51;3.80;99.90
30234;DHT22;17046;52.074;4.748;2023-02-28T03:28:51;3.80;99.90
30234;DHT22;17046;52.074;4.748;2023-02-28T03:31:37;3.80;99.90
30234;DHT22;17046;52.074;4.748;2023-02-28T03:34:12;3.80;99.90
30234;DHT22;17046;52.074;4.748;2023-02-28T03:36:45;3.80;99.90
30234;DHT22;17046;52.074;4.748;2023-02-28T03:39:23;3.70;99.90
30234;DHT22;17046;52.074;4.748;2023-02-28T03:41:57;3.60;99.90
30234;DHT22;17046;52.074;4.748;2023-02-28T03:44:30;3.60;99.90
30234;DHT22;17046;52.074;4.748;2023-02-28T03:47:04;3.60;99.90
30234;DHT22;17046;52.074;4.748;2023-02-28T03:49:57;3.50;99.90
30234;DHT22;17046;52.074;4.748;2023-02-28T03:52:30;3.50;99.90
30234;DHT22;17046;52.074;4.748;2023-02-28T03:55:02;3.50;99.90
30234;DHT22;17046;52.074;4.748;2023-02-28T04:00:19;3.50;99.90
30234;DHT22;17046;52.074;4.748;2023-02-28T04:02:45;3.50;99.90
30234;DHT22;17046;52.074;4.748;2023-02-28T04:05:11;3.50;99.90
30234;DHT22;17046;52.074;4.748;2023-02-28T04:07:37;3.50;99.90
30234;DHT22;17046;52.074;4.748;2023-02-28T04:10:03;3.50;99.90
30234;DHT22;17046;52.074;4.748;2023-02-28T04:12:29;3.50;99.90
30234;DHT22;17046;52.074;4.748;2023-02-28T04:14:55;3.50;99.90
30234;DHT22;17046;52.074;4.748;2023-02-28T04:17:20;3.50;99.90
30234;DHT22;17046;52.074;4.748;2023-02-28T04:19:46;3.50;99.90
30234;DHT22;17046;52.074;4.748;2023-02-28T04:22:11;3.50;99.90
30234;DHT22;17046;52.074;4.748;2023-02-28T04:24:37;3.50;99.90
30234;DHT22;17046;52.074;4.748;2023-02-28T04:27:06;3.60;99.90
30234;DHT22;17046;52.074;4.748;2023-02-28T04:29:33;3.60;99.90
30234;DHT22;17046;52.074;4.748;2023-02-28T04:32:00;3.60;99.90
30234;DHT22;17046;52.074;4.748;2023-02-28T04:34:27;3.70;99.90
30234;DHT22;17046;52.074;4.748;2023-02-28T04:36:54;3.70;99.90
30234;DHT22;17046;52.074;4.748;2023-02-28T04:39:21;3.70;99.90
30234;DHT22;17046;52.074;4.748;2023-02-28T04:41:47;3.60;99.90
30234;DHT22;17046;52.074;4.748;2023-02-28T04:44:13;3.50;99.90
30234;DHT22;17046;52.074;4.748;2023-02-28T04:46:39;3.50;99.90
30234;DHT22;17046;52.074;4.748;2023-02-28T04:49:05;3.50;99.90
30234;DHT22;17046;52.074;4.748;2023-02-28T04:51:31;3.50;99.90
30234;DHT22;17046;52.074;4.748;2023-02-28T04:53:56;3.50;99.90
30234;DHT22;17046;52.074;4.748;2023-02-28T04:56:22;3.50;99.90
30234;DHT22;17046;52.074;4.748;2023-02-28T04:58:48;3.50;99.90
30234;DHT22;17046;52.074;4.748;2023-02-28T05:03:43;3.50;99.90
30234;DHT22;17046;52.074;4.748;2023-02-28T05:06:10;3.50;99.90
30234;DHT22;17046;52.074;4.748;2023-02-28T05:08:36;3.50;99.90
30234;DHT22;17046;52.074;4.748;2023-02-28T05:11:02;3.50;99.90
30234;DHT22;17046;52.074;4.748;2023-02-28T05:13:29;3.50;99.90
30234;DHT22;17046;52.074;4.748;2023-02-28T05:15:55;3.50;99.90
30234;DHT22;17046;52.074;4.748;2023-02-28T05:18:20;3.50;99.90
30234;DHT22;17046;52.074;4.748;2023-02-28T05:20:46;3.50;99.90
30234;DHT22;17046;52.074;4.748;2023-02-28T05:23:13;3.40;99.90
30234;DHT22;17046;52.074;4.748;2023-02-28T05:25:39;3.40;99.90
30234;DHT22;17046;52.074;4.748;2023-02-28T05:28:05;3.40;99.90
30234;DHT22;17046;52.074;4.748;2023-02-28T05:30:31;3.40;99.90
30234;DHT22;17046;52.074;4.748;2023-02-28T05:32:57;3.40;99.90
30234;DHT22;17046;52.074;4.748;2023-02-28T05:35:24;3.40;99.90
30234;DHT22;17046;52.074;4.748;2023-02-28T05:37:49;3.40;99.90
30234;DHT22;17046;52.074;4.748;2023-02-28T05:40:15;3.50;99.90
30234;DHT22;17046;52.074;4.748;2023-02-28T05:42:41;3.40;99.90
30234;DHT22;17046;52.074;4.748;2023-02-28T05:45:08;3.40;99.90
30234;DHT22;17046;52.074;4.748;2023-02-28T05:47:34;3.40;99.90
30234;DHT22;17046;52.074;4.748;2023-02-28T05:50:00;3.30;99.90
30234;DHT22;17046;52.074;4.748;2023-02-28T05:52:27;3.30;99.90
30234;DHT22;17046;52.074;4.748;2023-02-28T05:54:52;3.30;99.90
30234;DHT22;17046;52.074;4.748;2023-02-28T05:57:18;3.20;99.90
30234;DHT22;17046;52.074;4.748;2023-02-28T05:59:44;3.20;99.90
30234;DHT22;17046;52.074;4.748;2023-02-28T06:02:15;3.10;99.90
30234;DHT22;17046;52.074;4.748;2023-02-28T06:04:41;3.00;99.90
30234;DHT22;17046;52.074;4.748;2023-02-28T06:07:08;2.80;99.90
30234;DHT22;17046;52.074;4.748;2023-02-28T06:09:33;2.70;99.90
30234;DHT22;17046;52.074;4.748;2023-02-28T06:12:00;2.60;99.90
30234;DHT22;17046;52.074;4.748;2023-02-28T06:14:28;2.60;99.90
30234;DHT22;17046;52.074;4.748;2023-02-28T06:16:56;2.50;99.90
30234;DHT22;17046;52.074;4.748;2023-02-28T06:19:22;2.50;99.90
30234;DHT22;17046;52.074;4.748;2023-02-28T06:21:49;2.50;99.90
30234;DHT22;17046;52.074;4.748;2023-02-28T06:24:17;2.40;99.90
30234;DHT22;17046;52.074;4.748;2023-02-28T06:26:44;2.40;99.90
30234;DHT22;17046;52.074;4.748;2023-02-28T06:29:09;2.40;99.90
30234;DHT22;17046;52.074;4.748;2023-02-28T06:31:35;2.40;99.90
30234;DHT22;17046;52.074;4.748;2023-02-28T06:34:00;2.40;99.90
30234;DHT22;17046;52.074;4.748;2023-02-28T06:36:26;2.30;99.90
30234;DHT22;17046;52.074;4.748;2023-02-28T06:38:51;2.40;99.90
30234;DHT22;17046;52.074;4.748;2023-02-28T06:41:21;2.40;99.90
30234;DHT22;17046;52.074;4.748;2023-02-28T06:43:47;2.40;99.90
30234;DHT22;17046;52.074;4.748;2023-02-28T06:46:13;2.40;99.90
30234;DHT22;17046;52.074;4.748;2023-02-28T06:48:40;2.40;99.90
30234;DHT22;17046;52.074;4.748;2023-02-28T06:51:08;2.30;99.90
30234;DHT22;17046;52.074;4.748;2023-02-28T06:53:34;2.30;99.90
30234;DHT22;17046;52.074;4.748;2023-02-28T06:56:04;2.30;99.90
30234;DHT22;17046;52.074;4.748;2023-02-28T06:58:31;2.30;99.90
30234;DHT22;17046;52.074;4.748;2023-02-28T07:00:57;2.30;99.90
30234;DHT22;17046;52.074;4.748;2023-02-28T07:03:22;2.20;99.90
30234;DHT22;17046;52.074;4.748;2023-02-28T07:05:48;2.20;99.90
30234;DHT22;17046;52.074;4.748;2023-02-28T07:08:14;2.20;99.90
30234;DHT22;17046;52.074;4.748;2023-02-28T07:10:40;2.20;99.90
30234;DHT22;17046;52.074;4.748;2023-02-28T07:13:07;2.20;99.90
30234;DHT22;17046;52.074;4.748;2023-02-28T07:15:34;2.10;99.90
30234;DHT22;17046;52.074;4.748;2023-02-28T07:18:00;2.00;99.90
30234;DHT22;17046;52.074;4.748;2023-02-28T07:20:26;2.00;99.90
30234;DHT22;17046;52.074;4.748;2023-02-28T07:22:52;1.90;99.90
30234;DHT22;17046;52.074;4.748;2023-02-28T07:25:30;2.00;99.90
30234;DHT22;17046;52.074;4.748;2023-02-28T07:27:56;2.00;99.90
30234;DHT22;17046;52.074;4.748;2023-02-28T07:30:22;2.00;99.90
30234;DHT22;17046;52.074;4.748;2023-02-28T07:32:48;2.00;99.90
30234;DHT22;17046;52.074;4.748;2023-02-28T07:35:13;2.00;99.90
30234;DHT22;17046;52.074;4.748;2023-02-28T07:37:43;2.00;99.90
30234;DHT22;17046;52.074;4.748;2023-02-28T07:40:10;2.00;99.90
30234;DHT22;17046;52.074;4.748;2023-02-28T07:42:40;1.90;99.90
30234;DHT22;17046;52.074;4.748;2023-02-28T07:45:07;1.90;99.90
30234;DHT22;17046;52.074;4.748;2023-02-28T07:47:33;1.90;99.90
30234;DHT22;17046;52.074;4.748;2023-02-28T07:49:59;1.90;99.90
30234;DHT22;17046;52.074;4.748;2023-02-28T07:52:25;1.90;99.90
30234;DHT22;17046;52.074;4.748;2023-02-28T07:54:51;1.90;99.90
30234;DHT22;17046;52.074;4.748;2023-02-28T07:57:17;2.00;99.90
30234;DHT22;17046;52.074;4.748;2023-02-28T07:59:42;2.00;99.90
30234;DHT22;17046;52.074;4.748;2023-02-28T08:02:16;2.00;99.90
30234;DHT22;17046;52.074;4.748;2023-02-28T08:04:42;2.10;99.90
30234;DHT22;17046;52.074;4.748;2023-02-28T08:07:08;2.30;99.90
30234;DHT22;17046;52.074;4.748;2023-02-28T08:09:34;2.30;99.90
30234;DHT22;17046;52.074;4.748;2023-02-28T08:12:00;2.40;99.90
30234;DHT22;17046;52.074;4.748;2023-02-28T08:14:26;2.50;99.90
30234;DHT22;17046;52.074;4.748;2023-02-28T08:16:51;2.50;99.90
30234;DHT22;17046;52.074;4.748;2023-02-28T08:19:17;2.60;99.90
30234;DHT22;17046;52.074;4.748;2023-02-28T08:21:42;2.60;99.90
30234;DHT22;17046;52.074;4.748;2023-02-28T08:24:08;2.70;99.90
30234;DHT22;17046;52.074;4.748;2023-02-28T08:26:34;2.70;99.90
30234;DHT22;17046;52.074;4.748;2023-02-28T08:28:59;2.80;99.90
30234;DHT22;17046;52.074;4.748;2023-02-28T08:31:25;2.90;99.90
30234;DHT22;17046;52.074;4.748;2023-02-28T08:33:51;2.90;99.90
30234;DHT22;17046;52.074;4.748;2023-02-28T08:36:18;3.00;99.90
30234;DHT22;17046;52.074;4.748;2023-02-28T08:38:44;3.10;99.90
30234;DHT22;17046;52.074;4.748;2023-02-28T08:41:12;3.10;99.90
30234;DHT22;17046;52.074;4.748;2023-02-28T08:43:39;3.20;99.90
30234;DHT22;17046;52.074;4.748;2023-02-28T08:46:05;3.20;99.90
30234;DHT22;17046;52.074;4.748;2023-02-28T08:48:33;3.20;99.90
30234;DHT22;17046;52.074;4.748;2023-02-28T08:51:02;3.20;99.90
30234;DHT22;17046;52.074;4.748;2023-02-28T08:53:28;3.30;99.90
30234;DHT22;17046;52.074;4.748;2023-02-28T08:58:23;3.20;99.90
30234;DHT22;17046;52.074;4.748;2023-02-28T09:00:48;3.10;99.90
30234;DHT22;17046;52.074;4.748;2023-02-28T09:03:14;3.30;99.90
30234;DHT22;17046;52.074;4.748;2023-02-28T09:05:39;3.30;99.90
30234;DHT22;17046;52.074;4.748;2023-02-28T09:08:05;3.50;99.90
30234;DHT22;17046;52.074;4.748;2023-02-28T09:10:30;3.50;99.90
30234;DHT22;17046;52.074;4.748;2023-02-28T09:12:56;3.60;99.90
30234;DHT22;17046;52.074;4.748;2023-02-28T09:15:21;3.50;99.90
30234;DHT22;17046;52.074;4.748;2023-02-28T09:17:47;3.60;99.90
30234;DHT22;17046;52.074;4.748;2023-02-28T09:20:13;3.50;99.90
30234;DHT22;17046;52.074;4.748;2023-02-28T09:22:38;3.40;99.90
30234;DHT22;17046;52.074;4.748;2023-02-28T09:25:04;3.40;99.90
30234;DHT22;17046;52.074;4.748;2023-02-28T09:27:30;3.30;99.90
30234;DHT22;17046;52.074;4.748;2023-02-28T09:29:55;3.30;99.90
30234;DHT22;17046;52.074;4.748;2023-02-28T09:32:21;3.10;99.90
30234;DHT22;17046;52.074;4.748;2023-02-28T09:34:46;3.00;99.90
30234;DHT22;17046;52.074;4.748;2023-02-28T09:37:12;3.10;99.90
30234;DHT22;17046;52.074;4.748;2023-02-28T09:39:38;3.00;99.90
30234;DHT22;17046;52.074;4.748;2023-02-28T09:42:04;3.20;99.90
30234;DHT22;17046;52.074;4.748;2023-02-28T09:44:43;3.40;99.90
30234;DHT22;17046;52.074;4.748;2023-02-28T09:47:33;3.40;99.90
30234;DHT22;17046;52.074;4.748;2023-02-28T09:50:07;3.30;99.90
30234;DHT22;17046;52.074;4.748;2023-02-28T09:52:34;3.40;99.90
30234;DHT22;17046;52.074;4.748;2023-02-28T09:57:48;3.50;99.90
30234;DHT22;17046;52.074;4.748;2023-02-28T10:00:22;3.60;99.90
30234;DHT22;17046;52.074;4.748;2023-02-28T10:08:27;3.80;99.90
30234;DHT22;17046;52.074;4.748;2023-02-28T10:11:00;4.00;99.90
30234;DHT22;17046;52.074;4.748;2023-02-28T10:13:32;4.20;99.90
30234;DHT22;17046;52.074;4.748;2023-02-28T10:16:10;4.40;99.90
30234;DHT22;17046;52.074;4.748;2023-02-28T10:21:53;4.70;97.70
30234;DHT22;17046;52.074;4.748;2023-02-28T10:30:00;4.80;17.40
30234;DHT22;17046;52.074;4.748;2023-02-28T10:32:31;5.00;1.00
30234;DHT22;17046;52.074;4.748;2023-02-28T10:35:23;5.10;1.00
30234;DHT22;17046;52.074;4.748;2023-02-28T10:37:53;5.30;1.00
30234;DHT22;17046;52.074;4.748;2023-02-28T10:43:00;5.70;1.00
30234;DHT22;17046;52.074;4.748;2023-02-28T10:45:28;5.80;99.90
30234;DHT22;17046;52.074;4.748;2023-02-28T10:50:51;5.80;5.20
30234;DHT22;17046;52.074;4.748;2023-02-28T10:58:56;5.60;1.00
30234;DHT22;17046;52.074;4.748;2023-02-28T11:01:26;5.40;1.00
30234;DHT22;17046;52.074;4.748;2023-02-28T11:03:59;5.50;98.30
30234;DHT22;17046;52.074;4.748;2023-02-28T11:06:33;5.50;1.00
30234;DHT22;17046;52.074;4.748;2023-02-28T11:09:25;5.40;1.00
30234;DHT22;17046;52.074;4.748;2023-02-28T11:11:52;5.40;99.90
30234;DHT22;17046;52.074;4.748;2023-02-28T11:14:27;5.30;99.90
30234;DHT22;17046;52.074;4.748;2023-02-28T11:16:54;5.20;99.90
30234;DHT22;17046;52.074;4.748;2023-02-28T11:19:26;5.50;99.90
30234;DHT22;17046;52.074;4.748;2023-02-28T11:22:04;5.50;99.90
30234;DHT22;17046;52.074;4.748;2023-02-28T11:24:45;5.90;99.90
30234;DHT22;17046;52.074;4.748;2023-02-28T11:27:44;6.30;99.90
30234;DHT22;17046;52.074;4.748;2023-02-28T11:30:34;6.40;99.90
30234;DHT22;17046;52.074;4.748;2023-02-28T11:33:01;6.60;99.90
30234;DHT22;17046;52.074;4.748;2023-02-28T11:35:36;6.90;99.90
30234;DHT22;17046;52.074;4.748;2023-02-28T11:38:09;6.70;99.90
30234;DHT22;17046;52.074;4.748;2023-02-28T11:40:48;6.60;99.90
30234;DHT22;17046;52.074;4.748;2023-02-28T11:43:38;6.90;99.90
30234;DHT22;17046;52.074;4.748;2023-02-28T11:51:58;6.50;99.90
30234;DHT22;17046;52.074;4.748;2023-02-28T11:54:44;6.70;99.90
30234;DHT22;17046;52.074;4.748;2023-02-28T12:05:50;5.90;99.90
30234;DHT22;17046;52.074;4.748;2023-02-28T12:14:30;5.70;99.90
30234;DHT22;17046;52.074;4.748;2023-02-28T12:28:13;5.60;99.90
30234;DHT22;17046;52.074;4.748;2023-02-28T12:30:59;5.70;99.90
30234;DHT22;17046;52.074;4.748;2023-02-28T12:33:32;5.70;99.90
30234;DHT22;17046;52.074;4.748;2023-02-28T12:36:03;5.80;99.90
30234;DHT22;17046;52.074;4.748;2023-02-28T12:38:38;5.70;99.90
30234;DHT22;17046;52.074;4.748;2023-02-28T12:43:42;5.80;99.90
30234;DHT22;17046;52.074;4.748;2023-02-28T12:48:50;5.70;99.90
30234;DHT22;17046;52.074;4.748;2023-02-28T12:51:18;5.60;99.90
30234;DHT22;17046;52.074;4.748;2023-02-28T12:54:07;5.70;99.90
30234;DHT22;17046;52.074;4.748;2023-02-28T12:59:25;5.70;99.90
30234;DHT22;17046;52.074;4.748;2023-02-28T13:02:09;5.70;99.90
30234;DHT22;17046;52.074;4.748;2023-02-28T13:10:15;5.80;99.90
30234;DHT22;17046;52.074;4.748;2023-02-28T13:12:53;5.80;99.90
30234;DHT22;17046;52.074;4.748;2023-02-28T13:15:26;5.80;99.90
30234;DHT22;17046;52.074;4.748;2023-02-28T13:17:56;5.80;99.90
30234;DHT22;17046;52.074;4.748;2023-02-28T13:20:35;5.80;99.90
30234;DHT22;17046;52.074;4.748;2023-02-28T13:23:01;5.90;99.90
30234;DHT22;17046;52.074;4.748;2023-02-28T13:28:03;6.10;99.90
30234;DHT22;17046;52.074;4.748;2023-02-28T13:38:44;6.10;99.90
30234;DHT22;17046;52.074;4.748;2023-02-28T13:46:27;6.30;99.90
30234;DHT22;17046;52.074;4.748;2023-02-28T13:48:53;6.40;99.90
30234;DHT22;17046;52.074;4.748;2023-02-28T13:51:44;6.20;99.90
30234;DHT22;17046;52.074;4.748;2023-02-28T13:54:32;6.20;99.90
30234;DHT22;17046;52.074;4.748;2023-02-28T14:03:23;6.40;99.90
30234;DHT22;17046;52.074;4.748;2023-02-28T14:06:26;6.40;99.90
30234;DHT22;17046;52.074;4.748;2023-02-28T14:11:27;6.40;99.90
30234;DHT22;17046;52.074;4.748;2023-02-28T14:13:53;6.40;99.90
30234;DHT22;17046;52.074;4.748;2023-02-28T14:16:25;6.30;99.90
30234;DHT22;17046;52.074;4.748;2023-02-28T14:18:58;6.30;99.90
30234;DHT22;17046;52.074;4.748;2023-02-28T14:21:31;6.40;99.90
30234;DHT22;17046;52.074;4.748;2023-02-28T14:32:51;6.50;99.90
30234;DHT22;17046;52.074;4.748;2023-02-28T14:37:51;6.50;99.90
30234;DHT22;17046;52.074;4.748;2023-02-28T14:40:33;6.40;99.90
30234;DHT22;17046;52.074;4.748;2023-02-28T14:43:02;6.50;99.90
30234;DHT22;17046;52.074;4.748;2023-02-28T14:45:30;6.50;99.90
30234;DHT22;17046;52.074;4.748;2023-02-28T14:47:57;6.50;99.90
30234;DHT22;17046;52.074;4.748;2023-02-28T14:50:29;6.60;99.90
30234;DHT22;17046;52.074;4.748;2023-02-28T14:52:56;6.50;99.90
30234;DHT22;17046;52.074;4.748;2023-02-28T14:55:31;6.40;99.90
30234;DHT22;17046;52.074;4.748;2023-02-28T14:57:59;6.40;99.90
30234;DHT22;17046;52.074;4.748;2023-02-28T15:00:27;6.40;99.90
30234;DHT22;17046;52.074;4.748;2023-02-28T15:02:55;6.40;99.90
30234;DHT22;17046;52.074;4.748;2023-02-28T15:05:32;6.40;99.90
30234;DHT22;17046;52.074;4.748;2023-02-28T15:08:11;6.50;99.90
30234;DHT22;17046;52.074;4.748;2023-02-28T15:10:40;6.40;99.90
30234;DHT22;17046;52.074;4.748;2023-02-28T15:13:12;6.50;99.90
30234;DHT22;17046;52.074;4.748;2023-02-28T15:15:47;6.50;99.90
30234;DHT22;17046;52.074;4.748;2023-02-28T15:18:23;6.50;99.90
30234;DHT22;17046;52.074;4.748;2023-02-28T15:20:51;6.60;99.90
30234;DHT22;17046;52.074;4.748;2023-02-28T15:23:17;6.50;99.90
30234;DHT22;17046;52.074;4.748;2023-02-28T15:25:44;6.40;99.90
30234;DHT22;17046;52.074;4.748;2023-02-28T15:28:18;6.40;99.90
30234;DHT22;17046;52.074;4.748;2023-02-28T15:30:53;6.30;99.90
30234;DHT22;17046;52.074;4.748;2023-02-28T15:33:25;6.30;99.90
30234;DHT22;17046;52.074;4.748;2023-02-28T15:35:51;6.30;99.90
30234;DHT22;17046;52.074;4.748;2023-02-28T15:40:53;6.20;99.90
30234;DHT22;17046;52.074;4.748;2023-02-28T15:43:25;6.10;99.90
30234;DHT22;17046;52.074;4.748;2023-02-28T15:45:58;6.10;99.90
30234;DHT22;17046;52.074;4.748;2023-02-28T15:50:58;6.00;99.90
30234;DHT22;17046;52.074;4.748;2023-02-28T15:53:30;5.90;1.00
30234;DHT22;17046;52.074;4.748;2023-02-28T15:56:06;5.90;1.00
30234;DHT22;17046;52.074;4.748;2023-02-28T15:58:35;5.80;1.00
30234;DHT22;17046;52.074;4.748;2023-02-28T16:01:24;5.80;1.00
30234;DHT22;17046;52.074;4.748;2023-02-28T16:03:51;5.70;1.00
30234;DHT22;17046;52.074;4.748;2023-02-28T16:08:59;5.70;1.00
30234;DHT22;17046;52.074;4.748;2023-02-28T16:11:24;5.70;1.00
30234;DHT22;17046;52.074;4.748;2023-02-28T16:13:51;5.70;1.00
30234;DHT22;17046;52.074;4.748;2023-02-28T16:16:19;5.60;1.00
30234;DHT22;17046;52.074;4.748;2023-02-28T16:18:46;5.60;1.00
30234;DHT22;17046;52.074;4.748;2023-02-28T16:21:12;5.60;1.00
30234;DHT22;17046;52.074;4.748;2023-02-28T16:23:37;5.50;1.00
30234;DHT22;17046;52.074;4.748;2023-02-28T16:26:04;5.50;1.00
30234;DHT22;17046;52.074;4.748;2023-02-28T16:28:38;5.40;1.00
30234;DHT22;17046;52.074;4.748;2023-02-28T16:31:06;5.40;1.00
30234;DHT22;17046;52.074;4.748;2023-02-28T16:33:33;5.40;1.00
30234;DHT22;17046;52.074;4.748;2023-02-28T16:36:00;4.20;1.00
30234;DHT22;17046;52.074;4.748;2023-02-28T16:38:26;5.30;23.60
30234;DHT22;17046;52.074;4.748;2023-02-28T16:40:53;5.30;99.90
30234;DHT22;17046;52.074;4.748;2023-02-28T16:43:24;5.30;99.90
30234;DHT22;17046;52.074;4.748;2023-02-28T16:45:55;5.30;60.50
30234;DHT22;17046;52.074;4.748;2023-02-28T16:48:22;5.20;35.10
30234;DHT22;17046;52.074;4.748;2023-02-28T16:50:47;5.10;20.60
30234;DHT22;17046;52.074;4.748;2023-02-28T16:53:13;5.10;65.40
30234;DHT22;17046;52.074;4.748;2023-02-28T16:55:39;5.00;99.90
30234;DHT22;17046;52.074;4.748;2023-02-28T16:58:04;4.90;99.90
30234;DHT22;17046;52.074;4.748;2023-02-28T17:00:32;4.90;99.90
30234;DHT22;17046;52.074;4.748;2023-02-28T17:02:58;4.70;99.90
30234;DHT22;17046;52.074;4.748;2023-02-28T17:05:25;4.70;99.90
30234;DHT22;17046;52.074;4.748;2023-02-28T17:07:52;4.60;99.90
30234;DHT22;17046;52.074;4.748;2023-02-28T17:10:21;4.60;99.90
30234;DHT22;17046;52.074;4.748;2023-02-28T17:12:48;4.50;99.90
30234;DHT22;17046;52.074;4.748;2023-02-28T17:15:15;4.40;99.90
30234;DHT22;17046;52.074;4.748;2023-02-28T17:17:42;4.40;99.90
30234;DHT22;17046;52.074;4.748;2023-02-28T17:20:12;4.30;99.90
30234;DHT22;17046;52.074;4.748;2023-02-28T17:22:38;4.20;99.90
30234;DHT22;17046;52.074;4.748;2023-02-28T17:25:04;4.20;99.90
30234;DHT22;17046;52.074;4.748;2023-02-28T17:27:30;4.10;99.90
30234;DHT22;17046;52.074;4.748;2023-02-28T17:29:56;4.00;99.90
30234;DHT22;17046;52.074;4.748;2023-02-28T17:32:21;4.00;99.90
30234;DHT22;17046;52.074;4.748;2023-02-28T17:34:47;3.90;99.90
30234;DHT22;17046;52.074;4.748;2023-02-28T17:37:13;3.90;1.00
30234;DHT22;17046;52.074;4.748;2023-02-28T17:39:38;3.80;1.00
30234;DHT22;17046;52.074;4.748;2023-02-28T17:42:04;3.80;1.00
30234;DHT22;17046;52.074;4.748;2023-02-28T17:44:30;3.70;1.00
30234;DHT22;17046;52.074;4.748;2023-02-28T17:46:55;3.70;1.00
30234;DHT22;17046;52.074;4.748;2023-02-28T17:49:21;3.60;1.00
30234;DHT22;17046;52.074;4.748;2023-02-28T17:51:47;3.60;1.00
30234;DHT22;17046;52.074;4.748;2023-02-28T17:54:13;3.60;1.00
30234;DHT22;17046;52.074;4.748;2023-02-28T17:56:40;3.60;1.00
30234;DHT22;17046;52.074;4.748;2023-02-28T17:59:09;3.50;1.00
30234;DHT22;17046;52.074;4.748;2023-02-28T18:01:35;3.50;1.00
30234;DHT22;17046;52.074;4.748;2023-02-28T18:04:00;3.50;1.00
30234;DHT22;17046;52.074;4.748;2023-02-28T18:06:37;3.40;1.00
30234;DHT22;17046;52.074;4.748;2023-02-28T18:09:20;3.40;1.00
30234;DHT22;17046;52.074;4.748;2023-02-28T18:11:50;3.40;1.00
30234;DHT22;17046;52.074;4.748;2023-02-28T18:14:17;3.40;1.00
30234;DHT22;17046;52.074;4.748;2023-02-28T18:16:44;3.30;1.00
30234;DHT22;17046;52.074;4.748;2023-02-28T18:19:11;3.30;1.00
30234;DHT22;17046;52.074;4.748;2023-02-28T18:21:42;3.30;1.00
30234;DHT22;17046;52.074;4.748;2023-02-28T18:24:08;3.30;1.00
30234;DHT22;17046;52.074;4.748;2023-02-28T18:26:35;3.30;1.00
30234;DHT22;17046;52.074;4.748;2023-02-28T18:29:01;3.20;1.00
30234;DHT22;17046;52.074;4.748;2023-02-28T18:31:26;3.10;1.00
30234;DHT22;17046;52.074;4.748;2023-02-28T18:33:52;3.10;11.90
30234;DHT22;17046;52.074;4.748;2023-02-28T18:36:19;2.90;22.60